createdAt,value
2018-12-27T00:02:21.109Z,101493.52
2018-12-27T00:04:56.443Z,101488.63
2018-12-27T00:07:29.633Z,101493.65
2018-12-27T00:10:10.285Z,101497.84
2018-12-27T00:12:46.360Z,101497.82
2018-12-27T00:18:15.251Z,101501.00
2018-12-27T00:20:53.356Z,101494.84
2018-12-27T00:23:31.462Z,101489.27
2018-12-27T00:26:07.029Z,101487.96
2018-12-27T00:28:43.756Z,101490.47
2018-12-27T00:31:25.392Z,101491.37
2018-12-27T00:33:50.588Z,101490.33
2018-12-27T00:36:21.736Z,101491.41
2018-12-27T00:38:53.008Z,101493.86
2018-12-27T00:41:41.660Z,101492.59
2018-12-27T00:44:19.701Z,101495.83
2018-12-27T00:46:54.181Z,101499.53
2018-12-27T00:49:58.816Z,101494.09
2018-12-27T00:52:32.206Z,101492.91
2018-12-27T00:55:11.953Z,101493.94
2018-12-27T00:57:58.009Z,101492.77
2018-12-27T01:00:31.347Z,101494.17
2018-12-27T01:03:18.500Z,101489.83
2018-12-27T01:05:54.144Z,101489.88
2018-12-27T01:08:31.945Z,101486.63
2018-12-27T01:11:08.462Z,101495.20
2018-12-27T01:13:42.016Z,101489.77
2018-12-27T01:16:16.913Z,101487.59
2018-12-27T01:18:52.569Z,101481.34
2018-12-27T01:21:35.995Z,101475.55
2018-12-27T01:24:09.682Z,101471.90
2018-12-27T01:26:41.235Z,101474.75
2018-12-27T01:29:17.242Z,101482.81
2018-12-27T01:31:51.412Z,101476.03
2018-12-27T01:34:25.321Z,101484.59
2018-12-27T01:37:23.367Z,101474.60
2018-12-27T01:40:15.026Z,101469.77
2018-12-27T01:42:47.284Z,101468.45
2018-12-27T01:48:07.536Z,101467.39
2018-12-27T01:50:51.469Z,101462.89
2018-12-27T01:53:38.701Z,101474.16
2018-12-27T01:56:19.275Z,101475.36
2018-12-27T01:58:53.429Z,101478.69
2018-12-27T02:01:35.837Z,101476.81
2018-12-27T02:04:07.347Z,101474.83
2018-12-27T02:06:45.131Z,101484.86
2018-12-27T02:09:19.087Z,101480.53
2018-12-27T02:11:49.739Z,101473.64
2018-12-27T02:14:23.752Z,101476.00
2018-12-27T02:16:57.965Z,101470.05
2018-12-27T02:19:32.709Z,101475.06
2018-12-27T02:22:05.633Z,101471.18
2018-12-27T02:24:41.696Z,101462.20
2018-12-27T02:27:17.373Z,101454.21
2018-12-27T02:29:53.730Z,101448.48
2018-12-27T02:32:32.826Z,101437.02
2018-12-27T02:35:13.522Z,101422.07
2018-12-27T02:37:53.826Z,101415.16
2018-12-27T02:40:31.298Z,101415.08
2018-12-27T02:43:47.787Z,101413.56
2018-12-27T02:46:11.408Z,101413.13
2018-12-27T02:48:45.717Z,101414.29
2018-12-27T02:51:23.662Z,101416.87
2018-12-27T02:56:54.806Z,101392.78
2018-12-27T02:59:30.702Z,101385.19
2018-12-27T03:02:11.900Z,101382.63
2018-12-27T03:04:43.574Z,101377.15
2018-12-27T03:07:23.938Z,101362.25
2018-12-27T03:09:56.283Z,101362.57
2018-12-27T03:12:30.691Z,101366.36
2018-12-27T03:15:03.593Z,101365.55
2018-12-27T03:17:39.526Z,101368.55
2018-12-27T03:20:29.515Z,101369.83
2018-12-27T03:24:08.028Z,101367.53
2018-12-27T03:26:32.501Z,101364.83
2018-12-27T03:29:08.728Z,101356.88
2018-12-27T03:31:52.979Z,101365.75
2018-12-27T03:34:39.795Z,101365.58
2018-12-27T03:37:10.697Z,101355.06
2018-12-27T03:39:47.299Z,101349.34
2018-12-27T03:42:54.128Z,101345.67
2018-12-27T03:45:59.192Z,101346.84
2018-12-27T03:48:33.334Z,101350.95
2018-12-27T03:51:09.701Z,101345.77
2018-12-27T03:53:46.338Z,101342.85
2018-12-27T03:56:25.953Z,101336.91
2018-12-27T03:59:16.041Z,101334.77
2018-12-27T04:01:48.861Z,101328.63
2018-12-27T04:04:29.220Z,101320.78
2018-12-27T04:07:03.311Z,101318.05
2018-12-27T04:09:38.731Z,101316.19
2018-12-27T04:12:17.366Z,101319.45
2018-12-27T04:14:56.857Z,101318.02
2018-12-27T04:17:42.139Z,101318.25
2018-12-27T04:20:29.883Z,101314.95
2018-12-27T04:23:11.050Z,101317.59
2018-12-27T04:25:57.604Z,101312.97
2018-12-27T04:28:27.946Z,101312.20
2018-12-27T04:31:02.192Z,101301.53
2018-12-27T04:33:36.169Z,101309.48
2018-12-27T04:36:21.901Z,101318.41
2018-12-27T04:38:49.656Z,101311.95
2018-12-27T04:41:24.419Z,101312.73
2018-12-27T04:46:43.192Z,101315.15
2018-12-27T04:49:18.444Z,101319.83
2018-12-27T04:51:53.958Z,101316.92
2018-12-27T04:54:30.123Z,101319.48
2018-12-27T04:57:13.180Z,101323.34
2018-12-27T04:59:40.006Z,101321.89
2018-12-27T05:02:21.522Z,101319.88
2018-12-27T05:04:53.095Z,101321.63
2018-12-27T05:07:28.309Z,101330.61
2018-12-27T05:10:05.765Z,101335.36
2018-12-27T05:12:38.925Z,101326.62
2018-12-27T05:15:14.366Z,101330.93
2018-12-27T05:18:06.651Z,101330.27
2018-12-27T05:20:41.760Z,101331.77
2018-12-27T05:23:15.782Z,101330.84
2018-12-27T05:25:55.182Z,101327.08
2018-12-27T05:28:29.657Z,101315.34
2018-12-27T05:31:07.657Z,101320.63
2018-12-27T05:33:43.313Z,101322.69
2018-12-27T05:36:25.064Z,101321.19
2018-12-27T05:38:55.925Z,101321.25
2018-12-27T05:41:28.387Z,101318.50
2018-12-27T05:44:05.007Z,101326.28
2018-12-27T05:46:43.784Z,101325.25
2018-12-27T05:49:14.865Z,101323.79
2018-12-27T05:52:01.936Z,101320.88
2018-12-27T05:54:34.581Z,101314.38
2018-12-27T05:57:12.079Z,101309.78
2018-12-27T05:59:44.909Z,101316.37
2018-12-27T06:02:19.221Z,101313.95
2018-12-27T06:04:55.705Z,101320.20
2018-12-27T06:07:29.477Z,101314.50
2018-12-27T06:10:01.873Z,101310.86
2018-12-27T06:12:32.798Z,101309.36
2018-12-27T06:18:14.979Z,101309.62
2018-12-27T06:20:49.298Z,101310.84
2018-12-27T06:23:28.904Z,101310.11
2018-12-27T06:26:14.694Z,101315.48
2018-12-27T06:28:54.310Z,101316.37
2018-12-27T06:31:32.818Z,101316.67
2018-12-27T06:34:14.921Z,101322.22
2018-12-27T06:36:53.752Z,101322.58
2018-12-27T06:39:32.082Z,101312.48
2018-12-27T06:42:08.942Z,101322.63
2018-12-27T06:44:45.980Z,101312.97
2018-12-27T06:47:23.845Z,101314.77
2018-12-27T06:49:58.359Z,101311.59
2018-12-27T06:52:38.208Z,101304.91
2018-12-27T06:55:22.564Z,101301.36
2018-12-27T06:58:22.743Z,101295.22
2018-12-27T07:00:37.031Z,101297.15
2018-12-27T07:03:12.576Z,101294.69
2018-12-27T07:06:12.281Z,101297.27
2018-12-27T07:09:10.556Z,101292.23
2018-12-27T07:12:40.437Z,101289.31
2018-12-27T07:15:16.551Z,101287.90
2018-12-27T07:18:06.401Z,101294.77
2018-12-27T07:20:49.575Z,101300.09
2018-12-27T07:23:51.257Z,101297.03
2018-12-27T07:26:44.516Z,101301.28
2018-12-27T07:29:28.536Z,101293.44
2018-12-27T07:32:05.924Z,101291.78
2018-12-27T07:34:58.840Z,101296.73
2018-12-27T07:37:36.381Z,101300.03
2018-12-27T07:40:35.361Z,101299.61
2018-12-27T07:43:15.279Z,101305.80
2018-12-27T07:46:11.067Z,101307.61
2018-12-27T07:48:42.739Z,101313.70
2018-12-27T07:51:31.706Z,101314.75
2018-12-27T07:54:03.096Z,101308.50
2018-12-27T07:56:39.513Z,101312.20
2018-12-27T07:59:59.184Z,101317.43
2018-12-27T08:02:11.152Z,101313.00
2018-12-27T08:05:03.869Z,101312.45
2018-12-27T08:07:39.294Z,101299.41
2018-12-27T08:10:23.109Z,101303.16
2018-12-27T08:12:57.675Z,101302.17
2018-12-27T08:15:33.800Z,101310.66
2018-12-27T08:18:10.471Z,101314.00
2018-12-27T08:20:43.224Z,101316.83
2018-12-27T08:23:22.037Z,101314.17
2018-12-27T08:25:58.453Z,101313.69
2018-12-27T08:28:37.093Z,101315.92
2018-12-27T08:31:13.463Z,101323.05
2018-12-27T08:33:43.289Z,101326.08
2018-12-27T08:36:21.087Z,101329.36
2018-12-27T08:38:58.838Z,101328.30
2018-12-27T08:41:31.163Z,101323.63
2018-12-27T08:44:10.189Z,101327.06
2018-12-27T08:46:52.030Z,101330.31
2018-12-27T08:49:21.017Z,101327.36
2018-12-27T08:51:55.589Z,101326.18
2018-12-27T08:54:29.608Z,101323.83
2018-12-27T08:57:02.463Z,101324.38
2018-12-27T08:59:39.779Z,101329.99
2018-12-27T09:02:11.082Z,101325.88
2018-12-27T09:04:44.311Z,101325.44
2018-12-27T09:07:18.635Z,101326.83
2018-12-27T09:09:51.725Z,101325.99
2018-12-27T09:12:31.643Z,101319.98
2018-12-27T09:15:02.142Z,101325.12
2018-12-27T09:17:33.875Z,101325.72
2018-12-27T09:20:13.664Z,101328.34
2018-12-27T09:22:50.934Z,101330.56
2018-12-27T09:25:34.259Z,101331.02
2018-12-27T09:28:07.321Z,101333.08
2018-12-27T09:30:38.517Z,101334.44
2018-12-27T09:33:37.258Z,101331.66
2018-12-27T09:36:26.190Z,101334.74
2018-12-27T09:38:58.994Z,101334.37
2018-12-27T09:41:30.255Z,101325.27
2018-12-27T09:44:07.124Z,101327.25
2018-12-27T09:46:45.748Z,101332.81
2018-12-27T09:49:17.122Z,101335.72
2018-12-27T09:51:52.192Z,101337.33
2018-12-27T09:54:23.163Z,101339.39
2018-12-27T09:56:58.822Z,101336.70
2018-12-27T09:59:36.678Z,101333.69
2018-12-27T10:02:12.711Z,101331.66
2018-12-27T10:04:45.152Z,101332.10
2018-12-27T10:07:22.062Z,101334.56
2018-12-27T10:09:58.449Z,101326.06
2018-12-27T10:12:29.488Z,101330.91
2018-12-27T10:15:02.114Z,101326.31
2018-12-27T10:17:40.791Z,101326.62
2018-12-27T10:20:11.956Z,101311.61
2018-12-27T10:22:43.109Z,101305.74
2018-12-27T10:25:21.119Z,101299.83
2018-12-27T10:28:01.561Z,101292.95
2018-12-27T10:30:43.185Z,101293.61
2018-12-27T10:33:15.550Z,101296.89
2018-12-27T10:35:54.648Z,101285.81
2018-12-27T10:38:31.284Z,101284.91
2018-12-27T10:41:01.054Z,101279.37
2018-12-27T10:43:34.635Z,101274.37
2018-12-27T10:46:07.312Z,101267.52
2018-12-27T10:48:39.899Z,101261.03
2018-12-27T10:51:14.519Z,101255.16
2018-12-27T10:53:51.910Z,101257.32
2018-12-27T10:56:32.381Z,101253.94
2018-12-27T10:59:04.024Z,101245.56
2018-12-27T11:01:36.295Z,101237.47
2018-12-27T11:04:07.336Z,101232.80
2018-12-27T11:06:40.499Z,101225.33
2018-12-27T11:09:21.694Z,101216.42
2018-12-27T11:11:55.175Z,101215.04
2018-12-27T11:14:31.987Z,101213.45
2018-12-27T11:17:03.317Z,101202.78
2018-12-27T11:19:39.502Z,101198.88
2018-12-27T11:22:20.727Z,101199.50
2018-12-27T11:24:42.899Z,101193.24
2018-12-27T11:27:14.464Z,101193.45
2018-12-27T11:29:46.916Z,101185.25
2018-12-27T11:32:18.642Z,101190.23
2018-12-27T11:34:53.104Z,101180.22
2018-12-27T11:37:25.510Z,101183.63
2018-12-27T11:40:01.705Z,101187.59
2018-12-27T11:42:36.187Z,101186.89
2018-12-27T11:45:18.553Z,101183.19
2018-12-27T11:48:14.141Z,101174.92
2018-12-27T11:51:08.749Z,101175.52
2018-12-27T11:53:44.280Z,101171.94
2018-12-27T11:56:20.748Z,101169.97
2018-12-27T11:58:57.186Z,101170.52
2018-12-27T12:01:37.270Z,101167.23
2018-12-27T12:04:17.592Z,101171.06
2018-12-27T12:07:01.472Z,101172.11
2018-12-27T12:09:50.879Z,101163.83
2018-12-27T12:12:32.665Z,101165.16
2018-12-27T12:15:10.362Z,101162.40
2018-12-27T12:17:41.539Z,101155.55
2018-12-27T12:20:48.093Z,101152.94
2018-12-27T12:23:25.634Z,101149.88
2018-12-27T12:25:58.496Z,101150.97
2018-12-27T12:28:41.758Z,101146.52
2018-12-27T12:31:30.344Z,101143.58
2018-12-27T12:34:11.849Z,101145.23
2018-12-27T12:36:58.725Z,101148.45
2018-12-27T12:39:34.276Z,101146.47
2018-12-27T12:42:16.071Z,101147.27
2018-12-27T12:44:57.550Z,101144.11
2018-12-27T12:47:38.127Z,101138.52
2018-12-27T12:50:43.385Z,101134.17
2018-12-27T12:53:25.556Z,101136.55
2018-12-27T12:56:00.692Z,101131.84
2018-12-27T12:58:43.773Z,101121.03
2018-12-27T13:01:38.597Z,101127.35
2018-12-27T13:04:40.777Z,101133.00
2018-12-27T13:07:22.714Z,101133.86
2018-12-27T13:10:15.472Z,101136.17
2018-12-27T13:13:02.778Z,101139.16
2018-12-27T13:15:35.509Z,101131.97
2018-12-27T13:18:21.134Z,101134.27
2018-12-27T13:20:56.883Z,101134.89
2018-12-27T13:23:42.769Z,101138.84
2018-12-27T13:26:35.633Z,101135.61
2018-12-27T13:32:11.491Z,101129.55
2018-12-27T13:34:46.431Z,101132.94
2018-12-27T13:37:27.802Z,101126.41
2018-12-27T13:40:03.299Z,101127.66
2018-12-27T13:42:49.361Z,101122.48
2018-12-27T13:45:38.929Z,101127.49
2018-12-27T13:48:07.699Z,101120.88
2018-12-27T13:50:42.273Z,101127.75
2018-12-27T13:56:26.133Z,101121.34
2018-12-27T13:59:20.820Z,101128.36
2018-12-27T14:02:00.915Z,101127.33
2018-12-27T14:04:58.730Z,101131.53
2018-12-27T14:08:02.036Z,101131.13
2018-12-27T14:11:14.208Z,101137.12
2018-12-27T14:13:58.835Z,101136.78
2018-12-27T14:16:57.837Z,101138.54
2018-12-27T14:19:32.776Z,101135.36
2018-12-27T14:22:13.462Z,101137.30
2018-12-27T14:25:27.140Z,101140.06
2018-12-27T14:27:56.243Z,101142.11
2018-12-27T14:30:36.028Z,101135.42
2018-12-27T14:36:48.340Z,101143.69
2018-12-27T14:42:09.234Z,101154.25
2018-12-27T14:44:54.796Z,101136.77
2018-12-27T14:51:04.381Z,101147.71
2018-12-27T14:54:16.078Z,101153.30
2018-12-27T14:57:01.839Z,101162.32
2018-12-27T15:00:30.427Z,101166.58
2018-12-27T15:07:33.466Z,101160.59
2018-12-27T15:14:12.183Z,101148.39
2018-12-27T15:19:06.814Z,101141.54
2018-12-27T15:20:10.279Z,101142.66
2018-12-27T15:22:59.719Z,101139.76
2018-12-27T15:30:14.736Z,101138.52
2018-12-27T15:33:02.791Z,101141.83
2018-12-27T15:38:02.923Z,101140.17
2018-12-27T15:40:50.791Z,101133.72
2018-12-27T15:44:06.670Z,101141.73
2018-12-27T15:47:17.761Z,101140.16
2018-12-27T15:50:28.686Z,101141.08
2018-12-27T16:09:32.690Z,101142.31
2018-12-27T16:10:38.129Z,101143.09
2018-12-27T16:12:20.885Z,101142.16
2018-12-27T16:15:12.358Z,101145.17
2018-12-27T16:18:11.860Z,101143.56
2018-12-27T16:20:40.496Z,101151.25
2018-12-27T16:23:18.100Z,101145.89
2018-12-27T16:26:27.378Z,101144.56
2018-12-27T16:28:48.007Z,101141.23
2018-12-27T16:31:45.157Z,101141.09
2018-12-27T16:34:26.255Z,101144.38
2018-12-27T16:37:08.597Z,101140.28
2018-12-27T16:39:40.780Z,101148.09
2018-12-27T16:42:44.142Z,101145.49
2018-12-27T16:45:29.626Z,101140.07
2018-12-27T16:48:14.791Z,101134.62
2018-12-27T16:50:58.161Z,101145.08
2018-12-27T16:53:42.881Z,101147.44
2018-12-27T16:57:52.664Z,101143.44
2018-12-27T17:05:49.577Z,101148.13
2018-12-27T17:06:59.695Z,101145.08
2018-12-27T17:08:39.966Z,101149.22
2018-12-27T17:11:24.195Z,101152.65
2018-12-27T17:14:56.584Z,101150.90
2018-12-27T17:16:57.638Z,101144.30
2018-12-27T17:19:34.288Z,101147.19
2018-12-27T17:22:11.861Z,101145.80
2018-12-27T17:25:02.449Z,101145.41
2018-12-27T17:28:34.529Z,101152.17
2018-12-27T17:31:16.969Z,101152.47
2018-12-27T17:34:25.886Z,101144.73
2018-12-27T17:37:23.261Z,101146.39
2018-12-27T17:40:24.503Z,101143.07
2018-12-27T17:43:28.672Z,101143.92
2018-12-27T17:52:45.693Z,101135.31
2018-12-27T17:58:49.428Z,101131.92
2018-12-27T18:01:17.935Z,101133.20
2018-12-27T18:03:49.485Z,101135.86
2018-12-27T18:06:24.783Z,101135.31
2018-12-27T18:08:59.025Z,101135.47
2018-12-27T18:11:38.164Z,101133.61
2018-12-27T18:14:19.784Z,101130.70
2018-12-27T18:16:55.268Z,101136.89
2018-12-27T18:19:26.478Z,101135.08
2018-12-27T18:22:00.052Z,101141.38
2018-12-27T18:24:33.906Z,101143.75
2018-12-27T18:27:31.683Z,101142.74
2018-12-27T18:30:03.959Z,101142.16
2018-12-27T18:32:39.007Z,101135.95
2018-12-27T18:35:19.772Z,101139.03
2018-12-27T18:37:52.044Z,101137.16
2018-12-27T18:40:27.789Z,101133.22
2018-12-27T18:43:14.107Z,101130.80
2018-12-27T18:45:50.052Z,101124.81
2018-12-27T18:48:42.691Z,101132.03
2018-12-27T18:51:19.595Z,101133.38
2018-12-27T18:54:02.153Z,101133.67
2018-12-27T18:56:41.441Z,101126.08
2018-12-27T18:59:23.239Z,101131.09
2018-12-27T19:02:02.240Z,101127.63
2018-12-27T19:04:43.048Z,101126.53
2018-12-27T19:07:22.573Z,101127.56
2018-12-27T19:09:54.004Z,101118.91
2018-12-27T19:13:30.883Z,101118.05
2018-12-27T19:17:01.333Z,101112.11
2018-12-27T19:19:32.941Z,101116.42
2018-12-27T19:23:07.121Z,101114.78
2018-12-27T19:25:37.451Z,101118.49
2018-12-27T19:28:33.161Z,101112.75
2018-12-27T19:35:44.873Z,101109.59
2018-12-27T19:41:41.463Z,101113.47
2018-12-27T19:44:50.839Z,101110.00
2018-12-27T19:47:57.407Z,101113.70
2018-12-27T19:50:26.599Z,101111.66
2018-12-27T19:52:59.306Z,101110.86
2018-12-27T19:55:39.482Z,101112.28
2018-12-27T19:58:35.085Z,101122.28
2018-12-27T20:01:41.574Z,101116.97
2018-12-27T20:04:35.621Z,101115.30
2018-12-27T20:07:42.092Z,101127.78
2018-12-27T20:10:30.154Z,101115.83
2018-12-27T20:13:08.117Z,101107.83
2018-12-27T20:15:52.317Z,101107.83
2018-12-27T20:18:58.452Z,101110.16
2018-12-27T20:24:00.370Z,101115.52
2018-12-27T20:26:33.061Z,101109.34
2018-12-27T20:29:09.105Z,101108.06
2018-12-27T20:31:56.746Z,101112.35
2018-12-27T20:34:58.768Z,101113.27
2018-12-27T20:37:52.249Z,101106.61
2018-12-27T20:41:58.823Z,101105.64
2018-12-27T20:44:38.030Z,101099.81
2018-12-27T20:47:12.815Z,101099.05
2018-12-27T20:49:58.690Z,101106.39
2018-12-27T20:52:27.859Z,101104.88
2018-12-27T20:55:00.242Z,101104.33
2018-12-27T20:57:35.303Z,101104.77
2018-12-27T21:00:12.491Z,101111.34
2018-12-27T21:02:49.822Z,101113.40
2018-12-27T21:05:24.413Z,101110.10
2018-12-27T21:08:06.240Z,101115.03
2018-12-27T21:10:38.809Z,101123.81
2018-12-27T21:13:15.606Z,101125.87
2018-12-27T21:16:16.374Z,101129.09
2018-12-27T21:19:12.094Z,101116.27
2018-12-27T21:21:43.262Z,101115.77
2018-12-27T21:24:19.971Z,101118.05
2018-12-27T21:26:52.297Z,101114.32
2018-12-27T21:29:52.060Z,101116.84
2018-12-27T21:33:37.791Z,101111.50
2018-12-27T21:35:24.619Z,101115.34
2018-12-27T21:38:04.720Z,101111.98
2018-12-27T21:40:51.007Z,101117.91
2018-12-27T21:43:23.843Z,101120.84
2018-12-27T21:46:08.189Z,101114.17
2018-12-27T21:49:18.799Z,101113.47
2018-12-27T21:51:52.420Z,101114.05
2018-12-27T21:54:39.714Z,101115.30
2018-12-27T21:57:14.706Z,101122.61
2018-12-27T21:59:47.304Z,101124.60
2018-12-27T22:02:20.887Z,101137.27
2018-12-27T22:04:56.867Z,101125.16
2018-12-27T22:07:39.883Z,101120.02
2018-12-27T22:10:18.594Z,101121.63
2018-12-27T22:12:57.628Z,101117.34
2018-12-27T22:15:46.053Z,101116.22
2018-12-27T22:18:27.461Z,101117.34
2018-12-27T22:21:11.750Z,101113.27
2018-12-27T22:23:47.232Z,101114.00
2018-12-27T22:26:32.270Z,101115.73
2018-12-27T22:29:10.546Z,101112.94
2018-12-27T22:31:50.968Z,101106.58
2018-12-27T22:34:57.358Z,101112.93
2018-12-27T22:37:04.587Z,101109.83
2018-12-27T22:39:37.335Z,101107.14
2018-12-27T22:42:13.521Z,101096.22
2018-12-27T22:44:50.745Z,101101.43
2018-12-27T22:47:29.686Z,101098.42
2018-12-27T22:50:04.187Z,101098.96
2018-12-27T22:52:41.135Z,101103.09
2018-12-27T22:55:15.385Z,101102.78
2018-12-27T22:57:48.776Z,101101.95
2018-12-27T23:00:39.167Z,101103.90
2018-12-27T23:03:23.149Z,101098.78
2018-12-27T23:06:03.083Z,101097.59
2018-12-27T23:08:33.051Z,101101.20
2018-12-27T23:11:21.937Z,101090.56
2018-12-27T23:14:00.305Z,101096.17
2018-12-27T23:16:30.199Z,101098.70
2018-12-27T23:19:25.813Z,101089.81
2018-12-27T23:24:47.421Z,101091.91
2018-12-27T23:27:37.132Z,101082.45
2018-12-27T23:30:23.371Z,101089.31
2018-12-27T23:33:32.857Z,101094.36
2018-12-27T23:36:43.931Z,101082.59
2018-12-27T23:39:23.559Z,101081.84
2018-12-27T23:42:09.644Z,101082.58
2018-12-27T23:45:01.382Z,101090.05
2018-12-27T23:47:54.173Z,101089.30
2018-12-27T23:50:37.546Z,101089.52
2018-12-27T23:56:33.507Z,101066.55
2018-12-27T23:59:01.619Z,101068.70
